Time;durP1;ratioP1;P1;durP2;ratioP2;P2;SDS_P1;SDS_P2;PMS_P1;PMS_P2;Temp;Humidity;BMP_temperature;BMP_pressure;BME280_temperature;BME280_humidity;BME280_pressure;Samples;Min_cycle;Max_cycle;Signal;HPM_P1;HPM_P2
2022/01/15 00:00:04;;;;;;;165.38;39.75;;;;;;;4.42;100.00;103293.97;5014270;28;20518;-72
2022/01/15 00:02:37;;;;;;;169.63;36.80;;;;;;;4.23;100.00;103297.41;5014857;28;20551;-75
2022/01/15 00:05:03;;;;;;;187.77;37.88;;;;;;;4.07;100.00;103299.41;5013471;28;20504;-75
2022/01/15 00:07:28;;;;;;;164.98;38.92;;;;;;;4.25;100.00;103308.84;5014233;28;20048;-74
2022/01/15 00:09:54;;;;;;;168.75;37.92;;;;;;;4.19;100.00;103298.81;5013193;28;20056;-75
2022/01/15 00:12:19;;;;;;;155.05;36.33;;;;;;;4.30;100.00;103287.44;5015427;28;20451;-74
2022/01/15 00:14:45;;;;;;;178.43;38.85;;;;;;;4.32;100.00;103283.50;5014013;28;20037;-74
2022/01/15 00:17:18;;;;;;;209.05;42.13;;;;;;;4.21;100.00;103285.94;5014893;28;20044;-74
2022/01/15 00:19:44;;;;;;;175.77;39.13;;;;;;;4.35;100.00;103300.34;5016243;28;20053;-74
2022/01/15 00:22:09;;;;;;;152.23;34.75;;;;;;;4.35;100.00;103294.97;5015368;28;20044;-74
2022/01/15 00:24:34;;;;;;;176.65;38.40;;;;;;;4.38;100.00;103283.75;5015925;28;20040;-75
2022/01/15 00:27:00;;;;;;;154.85;34.50;;;;;;;4.35;100.00;103276.03;5016388;28;20042;-74
2022/01/15 00:29:25;;;;;;;163.10;37.25;;;;;;;4.22;100.00;103274.13;5015425;28;20080;-74
2022/01/15 00:31:51;;;;;;;174.77;38.15;;;;;;;4.16;100.00;103274.91;5015700;28;20041;-74
2022/01/15 00:34:16;;;;;;;180.57;40.28;;;;;;;4.09;100.00;103269.50;5013829;28;20049;-74
2022/01/15 00:36:42;;;;;;;196.73;39.95;;;;;;;4.08;100.00;103265.13;4996231;28;20044;-73
2022/01/15 00:39:07;;;;;;;164.45;35.70;;;;;;;4.16;100.00;103264.97;5014607;28;20111;-74
2022/01/15 00:41:32;;;;;;;169.85;35.92;;;;;;;4.17;100.00;103266.63;5014613;28;20095;-74
2022/01/15 00:43:58;;;;;;;188.43;38.22;;;;;;;4.11;100.00;103261.19;5014061;28;20141;-74
2022/01/15 00:46:23;;;;;;;193.13;37.08;;;;;;;3.86;100.00;103265.22;5013448;28;20472;-74
2022/01/15 00:48:49;;;;;;;169.45;36.00;;;;;;;4.06;100.00;103253.69;5023562;28;20079;-74
2022/01/15 00:51:14;;;;;;;173.68;35.72;;;;;;;3.98;100.00;103251.97;5011162;28;20091;-74
2022/01/15 00:53:40;;;;;;;154.70;34.65;;;;;;;4.09;100.00;103243.31;5012430;28;20282;-73
2022/01/15 00:56:05;;;;;;;186.13;37.65;;;;;;;3.93;100.00;103243.66;5014480;28;20555;-74
2022/01/15 00:58:30;;;;;;;174.10;34.95;;;;;;;3.85;100.00;103244.66;5015094;28;20033;-74
2022/01/15 01:00:56;;;;;;;168.68;34.92;;;;;;;3.97;100.00;103242.22;5014933;28;20429;-74
2022/01/15 01:03:21;;;;;;;197.13;35.55;;;;;;;3.88;100.00;103248.84;5013614;28;20056;-74
2022/01/15 01:05:47;;;;;;;164.55;33.67;;;;;;;3.94;100.00;103242.63;5014005;28;20091;-74
2022/01/15 01:08:12;;;;;;;149.30;32.03;;;;;;;4.12;100.00;103231.28;5014285;28;20040;-74
2022/01/15 01:10:49;;;;;;;144.20;31.83;;;;;;;4.21;100.00;103231.94;5014126;28;20408;-73
2022/01/15 01:24:27;;;;;;;126.70;29.88;;;;;;;4.26;100.00;103224.06;5013566;28;20049;-74
2022/01/15 01:27:08;;;;;;;136.40;29.90;;;;;;;4.16;100.00;103221.75;5012472;28;20045;-74
2022/01/15 01:30:09;;;;;;;128.15;28.75;;;;;;;4.08;100.00;103216.53;5013759;28;20049;-74
2022/01/15 01:32:41;;;;;;;127.47;29.55;;;;;;;4.29;100.00;103215.56;5011742;28;20057;-74
2022/01/15 01:35:13;;;;;;;142.15;30.65;;;;;;;4.18;100.00;103210.75;5013064;28;20041;-73
2022/01/15 01:37:44;;;;;;;106.22;27.00;;;;;;;4.29;100.00;103210.16;5014122;28;20042;-74
2022/01/15 01:40:23;;;;;;;110.65;27.70;;;;;;;4.22;100.00;103220.13;5014285;28;20054;-74
2022/01/15 01:43:06;;;;;;;140.02;30.25;;;;;;;4.02;100.00;103220.88;5014232;28;20057;-75
2022/01/15 01:45:31;;;;;;;111.88;28.00;;;;;;;4.24;100.00;103212.63;5011979;28;20468;-74
2022/01/15 01:47:57;;;;;;;133.68;28.70;;;;;;;4.22;100.00;103203.91;5007673;28;20287;-74
2022/01/15 01:50:25;;;;;;;129.07;28.63;;;;;;;4.16;100.00;103204.69;5008537;28;20461;-73
2022/01/15 01:52:53;;;;;;;112.68;28.30;;;;;;;4.29;100.00;103220.97;5012672;28;20037;-75
2022/01/15 01:55:22;;;;;;;133.02;29.98;;;;;;;4.21;100.00;103215.72;5014088;28;20460;-74
2022/01/15 01:57:47;;;;;;;139.82;28.80;;;;;;;4.21;100.00;103213.03;5013155;28;20751;-74
2022/01/15 02:00:15;;;;;;;126.28;28.30;;;;;;;4.34;100.00;103199.59;5013429;28;20055;-73
2022/01/15 02:02:46;;;;;;;139.48;30.75;;;;;;;4.23;100.00;103194.78;5012452;28;20418;-73
2022/01/15 02:05:13;;;;;;;144.80;31.13;;;;;;;4.13;100.00;103199.72;5012595;28;20434;-74
2022/01/15 02:07:40;;;;;;;126.65;28.45;;;;;;;4.10;100.00;103211.75;5011988;28;20301;-74
2022/01/15 02:10:09;;;;;;;119.15;26.60;;;;;;;4.26;100.00;103215.97;5013795;28;20811;-74
2022/01/15 02:12:34;;;;;;;131.30;27.83;;;;;;;4.18;100.00;103208.03;4994034;23;20104;-69
2022/01/15 02:15:09;;;;;;;123.70;26.75;;;;;;;4.27;100.00;103204.13;4976343;28;20049;-70
2022/01/15 02:17:35;;;;;;;118.75;28.10;;;;;;;4.15;100.00;103205.75;4973878;28;20052;-70
2022/01/15 02:25:46;;;;;;;115.82;25.83;;;;;;;4.28;100.00;103189.59;4976365;28;20116;-69
2022/01/15 02:28:12;;;;;;;126.30;26.08;;;;;;;4.24;100.00;103185.63;4975793;28;20068;-69
2022/01/15 02:30:38;;;;;;;118.07;25.65;;;;;;;4.05;100.00;103193.47;4975611;28;20038;-69
2022/01/15 02:33:07;;;;;;;112.38;24.65;;;;;;;4.28;100.00;103189.59;4975465;28;20049;-68
2022/01/15 02:35:34;;;;;;;94.07;24.10;;;;;;;4.27;100.00;103185.22;4975247;28;20131;-69
2022/01/15 02:38:05;;;;;;;98.82;24.67;;;;;;;4.27;100.00;103179.81;4975991;28;20054;-67
2022/01/15 02:40:33;;;;;;;102.40;25.05;;;;;;;4.24;100.00;103174.81;4975749;28;20046;-67
2022/01/15 02:43:13;;;;;;;104.63;24.08;;;;;;;4.26;100.00;103167.34;4976221;28;20046;-68
2022/01/15 02:45:43;;;;;;;95.90;25.42;;;;;;;4.19;100.00;103167.34;4979041;28;20038;-68
2022/01/15 02:48:11;;;;;;;107.43;23.88;;;;;;;4.20;100.00;103170.88;4978981;28;20082;-69
2022/01/15 02:50:37;;;;;;;104.43;24.45;;;;;;;4.19;100.00;103171.88;4979090;28;20046;-69
2022/01/15 02:53:04;;;;;;;103.97;23.80;;;;;;;4.23;100.00;103167.75;4978763;28;20054;-69
2022/01/15 02:55:30;;;;;;;94.63;23.50;;;;;;;4.29;100.00;103161.53;4979444;28;20552;-69
2022/01/15 02:57:55;;;;;;;93.80;23.02;;;;;;;4.17;100.00;103157.78;4978692;28;20283;-68
2022/01/15 03:00:27;;;;;;;103.22;22.42;;;;;;;4.29;100.00;103156.13;4979084;28;20038;-66
2022/01/15 03:02:52;;;;;;;101.18;22.10;;;;;;;4.27;100.00;103159.03;4968936;28;20074;-69
2022/01/15 03:05:20;;;;;;;84.25;21.75;;;;;;;4.23;100.00;103148.84;4957046;28;20043;-68
2022/01/15 03:07:45;;;;;;;85.43;21.80;;;;;;;4.15;100.00;103141.75;4959235;28;20146;-69
2022/01/15 03:10:11;;;;;;;75.97;20.40;;;;;;;4.23;100.00;103140.75;4959844;28;20170;-68
2022/01/15 03:12:37;;;;;;;80.30;19.48;;;;;;;4.22;100.00;103131.00;4958014;28;20059;-69
2022/01/15 03:15:05;;;;;;;92.25;23.60;;;;;;;4.09;100.00;103129.09;4960993;28;20086;-69
2022/01/15 03:17:31;;;;;;;89.38;21.92;;;;;;;4.08;100.00;103135.53;4958451;28;20047;-69
2022/01/15 03:19:56;;;;;;;75.78;20.08;;;;;;;3.79;100.00;103125.88;4960361;28;20042;-67
2022/01/15 03:22:22;;;;;;;67.70;18.38;;;;;;;3.89;100.00;103123.63;4959849;28;20267;-69
2022/01/15 03:24:48;;;;;;;64.15;17.67;;;;;;;3.66;100.00;103117.72;4959809;28;20034;-67
2022/01/15 03:27:14;;;;;;;54.08;15.57;;;;;;;3.66;100.00;103117.72;4959813;28;20046;-69
2022/01/15 03:29:39;;;;;;;59.72;16.83;;;;;;;3.63;100.00;103114.38;4959881;28;20073;-69
2022/01/15 03:32:05;;;;;;;61.85;18.95;;;;;;;3.70;100.00;103113.59;4959697;28;20089;-68
2022/01/15 03:34:31;;;;;;;46.40;15.90;;;;;;;3.51;100.00;103104.38;4959319;28;20109;-67
2022/01/15 03:36:57;;;;;;;51.00;15.90;;;;;;;3.55;100.00;103106.50;4959256;28;20047;-70
2022/01/15 03:39:22;;;;;;;50.30;16.45;;;;;;;3.60;100.00;103093.22;4958384;28;20653;-67
2022/01/15 03:41:47;;;;;;;54.75;17.05;;;;;;;3.55;100.00;103095.69;4959303;28;20138;-67
2022/01/15 03:44:13;;;;;;;55.40;17.90;;;;;;;3.55;100.00;103100.25;4959668;28;20609;-68
2022/01/15 03:46:38;;;;;;;56.10;18.55;;;;;;;3.56;100.00;103088.44;4958661;28;20071;-72
2022/01/15 03:49:04;;;;;;;52.33;17.33;;;;;;;3.66;100.00;103079.94;4971759;28;20072;-69
2022/01/15 03:51:29;;;;;;;56.88;18.67;;;;;;;3.49;100.00;103076.75;4976333;28;20673;-69
2022/01/15 03:53:55;;;;;;;59.53;18.48;;;;;;;3.56;100.00;103073.06;4976643;28;20078;-69
2022/01/15 03:56:20;;;;;;;57.67;18.65;;;;;;;3.43;100.00;103086.50;4976561;28;20086;-68
2022/01/15 03:58:45;;;;;;;55.65;17.85;;;;;;;3.36;100.00;103083.78;4978505;28;20366;-67
2022/01/15 04:01:11;;;;;;;50.33;18.20;;;;;;;3.49;100.00;103085.72;4978061;28;20050;-69
2022/01/15 04:03:37;;;;;;;51.78;16.92;;;;;;;3.38;100.00;103079.03;4977521;28;20057;-67
2022/01/15 04:06:03;;;;;;;61.53;18.63;;;;;;;3.48;100.00;103078.63;4976510;28;20042;-67
2022/01/15 04:08:28;;;;;;;59.78;19.38;;;;;;;3.42;100.00;103090.22;4978374;28;20418;-67
2022/01/15 04:10:54;;;;;;;58.70;20.88;;;;;;;3.53;100.00;103083.44;4978357;28;20050;-69
2022/01/15 04:13:19;;;;;;;56.80;19.60;;;;;;;3.74;100.00;103082.47;4978848;28;20046;-68
2022/01/15 04:15:51;;;;;;;65.63;19.45;;;;;;;3.58;100.00;103072.88;4978511;28;20056;-70
2022/01/15 04:18:16;;;;;;;69.05;19.38;;;;;;;3.62;100.00;103074.97;4978018;28;20061;-66
2022/01/15 04:20:42;;;;;;;66.75;22.35;;;;;;;3.63;100.00;103079.31;4977777;28;20506;-68
2022/01/15 04:23:07;;;;;;;75.75;22.75;;;;;;;3.45;100.00;103073.66;4976286;28;20045;-71
2022/01/15 04:25:33;;;;;;;81.35;24.95;;;;;;;3.61;100.00;103061.69;4977547;28;20038;-67
2022/01/15 04:28:01;;;;;;;74.05;23.10;;;;;;;3.70;100.00;103062.34;4977592;28;20486;-67
2022/01/15 04:30:32;;;;;;;75.88;23.65;;;;;;;3.84;100.00;103072.13;4977105;28;20038;-68
2022/01/15 04:32:58;;;;;;;86.50;25.90;;;;;;;3.71;100.00;103072.09;4978366;28;20790;-68
2022/01/15 04:35:23;;;;;;;83.93;26.23;;;;;;;3.49;100.00;103066.84;4977017;28;20236;-69
2022/01/15 04:37:53;;;;;;;81.35;27.88;;;;;;;3.68;100.00;103061.69;4976651;28;20061;-67
2022/01/15 04:40:18;;;;;;;91.28;28.55;;;;;;;3.65;100.00;103065.63;4978880;28;20045;-68
2022/01/15 04:42:44;;;;;;;86.40;25.98;;;;;;;3.61;100.00;103065.22;4976013;28;20054;-68
2022/01/15 04:45:09;;;;;;;100.82;26.67;;;;;;;3.53;100.00;103060.00;4977190;28;20038;-69
2022/01/15 04:47:36;;;;;;;82.20;25.35;;;;;;;3.56;100.00;103054.19;4977501;28;20152;-69
2022/01/15 04:50:04;;;;;;;92.55;26.02;;;;;;;3.46;100.00;103053.75;4977573;28;20394;-67
2022/01/15 04:52:30;;;;;;;80.88;23.38;;;;;;;3.49;100.00;103053.34;4977510;28;20048;-68
2022/01/15 04:54:56;;;;;;;63.45;20.13;;;;;;;3.29;100.00;103055.13;4976022;28;20050;-68
2022/01/15 04:57:22;;;;;;;82.93;24.05;;;;;;;3.43;100.00;103056.00;4976880;28;20513;-69
2022/01/15 04:59:47;;;;;;;79.82;23.17;;;;;;;3.37;100.00;103049.53;4977297;28;20148;-67
2022/01/15 05:02:13;;;;;;;75.55;22.90;;;;;;;3.51;100.00;103045.88;4976290;28;20030;-68
2022/01/15 05:04:38;;;;;;;93.25;25.60;;;;;;;3.58;100.00;103052.13;4975859;28;20582;-68
2022/01/15 05:07:03;;;;;;;77.22;22.85;;;;;;;3.52;100.00;103058.34;4974174;28;20062;-68
2022/01/15 05:09:29;;;;;;;80.50;23.42;;;;;;;3.52;100.00;103047.53;4976642;28;20042;-69
2022/01/15 05:12:06;;;;;;;87.93;22.63;;;;;;;3.57;100.00;103033.44;4976162;28;20050;-69
2022/01/15 05:14:31;;;;;;;76.68;23.20;;;;;;;3.65;100.00;103035.97;4974787;28;20120;-66
2022/01/15 05:16:56;;;;;;;84.80;23.17;;;;;;;3.55;100.00;103043.59;4975783;28;20042;-68
2022/01/15 05:19:22;;;;;;;88.32;25.58;;;;;;;3.40;100.00;103043.75;4976266;28;20046;-67
2022/01/15 05:21:47;;;;;;;94.65;24.27;;;;;;;3.44;100.00;103039.63;4976744;28;20093;-67
2022/01/15 05:24:13;;;;;;;92.72;24.55;;;;;;;3.68;100.00;103035.53;4976694;28;20533;-67
2022/01/15 05:26:38;;;;;;;77.72;24.38;;;;;;;3.75;100.00;103032.84;4978493;28;20533;-67
2022/01/15 05:29:04;;;;;;;79.50;22.02;;;;;;;3.55;100.00;103036.34;4978310;28;20034;-68
2022/01/15 05:31:29;;;;;;;85.53;25.08;;;;;;;3.72;100.00;103027.88;4978794;28;20082;-68
2022/01/15 05:33:55;;;;;;;90.75;26.50;;;;;;;3.57;100.00;103023.47;4979412;28;20053;-69
2022/01/15 05:36:21;;;;;;;93.32;25.55;;;;;;;3.63;100.00;103021.81;4982305;28;20050;-68
2022/01/15 05:38:46;;;;;;;92.80;25.50;;;;;;;3.61;100.00;103032.84;4977209;28;20475;-67
2022/01/15 05:41:12;;;;;;;85.35;23.45;;;;;;;3.59;100.00;103026.81;4964644;28;20188;-68
2022/01/15 05:43:37;;;;;;;86.85;25.25;;;;;;;3.53;100.00;103027.63;4963219;28;20088;-67
2022/01/15 05:46:03;;;;;;;85.15;23.73;;;;;;;3.67;100.00;103016.88;4960909;28;20126;-71
2022/01/15 05:48:28;;;;;;;81.28;23.38;;;;;;;3.70;100.00;103011.06;4969028;28;20072;-67
2022/01/15 05:50:54;;;;;;;93.18;25.35;;;;;;;3.67;100.00;103016.88;4980648;28;20046;-67
2022/01/15 05:53:20;;;;;;;101.47;23.90;;;;;;;3.47;100.00;103012.25;4980742;28;20341;-68
2022/01/15 05:55:45;;;;;;;94.25;26.45;;;;;;;3.70;100.00;103011.06;4980766;28;20423;-69
2022/01/15 05:58:11;;;;;;;91.50;24.50;;;;;;;3.48;100.00;103010.38;4981833;28;20058;-68
2022/01/15 06:00:36;;;;;;;80.22;23.77;;;;;;;3.56;100.00;103011.03;4982352;28;20430;-67
2022/01/15 06:03:02;;;;;;;95.10;25.83;;;;;;;3.32;100.00;103000.78;4982617;28;20042;-69
2022/01/15 06:05:27;;;;;;;85.78;23.20;;;;;;;3.33;100.00;102994.34;4982789;28;20038;-67
2022/01/15 06:07:53;;;;;;;105.05;24.40;;;;;;;3.43;100.00;102993.97;4984328;28;20117;-69
2022/01/15 06:10:18;;;;;;;94.88;24.55;;;;;;;3.47;100.00;103004.16;4985799;28;20096;-68
2022/01/15 06:12:44;;;;;;;95.07;23.65;;;;;;;3.25;100.00;102999.91;4981232;28;20590;-68
2022/01/15 06:15:15;;;;;;;91.18;25.50;;;;;;;3.33;100.00;102999.75;4980009;28;20217;-69
2022/01/15 06:17:41;;;;;;;108.72;27.92;;;;;;;3.49;100.00;103004.78;4981654;28;20097;-69
2022/01/15 06:20:09;;;;;;;106.32;25.45;;;;;;;3.44;100.00;103007.25;4984690;28;20042;-67
2022/01/15 06:22:34;;;;;;;114.13;27.98;;;;;;;3.46;100.00;103009.75;4988040;28;20054;-68
2022/01/15 06:25:02;;;;;;;96.72;25.77;;;;;;;3.51;100.00;102997.31;4988892;28;20045;-69
2022/01/15 06:27:28;;;;;;;110.35;28.25;;;;;;;3.49;100.00;102991.31;4985544;28;20049;-68
2022/01/15 06:29:56;;;;;;;106.38;29.20;;;;;;;3.45;100.00;102992.72;4981171;28;20038;-67
2022/01/15 06:32:22;;;;;;;105.68;28.05;;;;;;;3.36;100.00;102988.56;4980731;28;20053;-67
2022/01/15 06:34:47;;;;;;;93.50;25.65;;;;;;;3.32;100.00;102976.53;4980225;28;20589;-68
2022/01/15 06:37:13;;;;;;;107.38;28.88;;;;;;;3.23;100.00;102973.19;4980380;28;20046;-67
2022/01/15 06:39:38;;;;;;;130.38;30.48;;;;;;;3.35;100.00;102966.16;4980101;28;20361;-69
2022/01/15 06:42:04;;;;;;;139.52;34.10;;;;;;;3.34;100.00;102974.44;4978514;28;20042;-68
2022/01/15 06:44:29;;;;;;;152.25;34.72;;;;;;;3.28;100.00;102954.50;4979655;28;20042;-67
2022/01/15 06:46:55;;;;;;;141.73;30.63;;;;;;;3.16;100.00;102956.94;4979597;28;20879;-70
2022/01/15 06:49:21;;;;;;;138.00;32.80;;;;;;;3.28;100.00;102950.97;4980663;28;20061;-72
2022/01/15 06:51:47;;;;;;;149.32;33.00;;;;;;;3.25;100.00;102952.22;4980258;28;20073;-67
2022/01/15 06:54:13;;;;;;;168.10;35.60;;;;;;;3.30;100.00;102943.53;4979413;28;20137;-68
2022/01/15 06:56:38;;;;;;;139.13;32.45;;;;;;;3.17;100.00;102937.06;4979348;28;20042;-68
2022/01/15 06:59:04;;;;;;;155.50;35.65;;;;;;;3.09;100.00;102937.25;4978861;28;20402;-67
2022/01/15 07:01:29;;;;;;;169.27;39.28;;;;;;;3.18;100.00;102933.31;4979400;28;20122;-67
2022/01/15 07:03:55;;;;;;;215.60;41.83;;;;;;;3.17;100.00;102936.22;4979247;28;20128;-68
2022/01/15 07:06:20;;;;;;;189.05;41.67;;;;;;;3.23;100.00;102931.88;4978539;28;20113;-69
2022/01/15 07:08:46;;;;;;;205.82;45.13;;;;;;;3.30;100.00;102930.88;4978792;28;20053;-67
2022/01/15 07:11:11;;;;;;;209.27;46.53;;;;;;;3.37;100.00;102937.13;4977718;28;20078;-68
2022/01/15 07:13:36;;;;;;;238.18;46.28;;;;;;;3.35;100.00;102932.97;4979162;28;20042;-69
2022/01/15 07:16:02;;;;;;;197.25;44.80;;;;;;;3.40;100.00;102935.88;4979287;28;20050;-67
2022/01/15 07:18:28;;;;;;;187.75;44.75;;;;;;;3.22;100.00;102935.63;4979239;28;20030;-67
2022/01/15 07:20:53;;;;;;;239.77;50.20;;;;;;;3.30;100.00;102935.44;4978591;28;20046;-67
2022/01/15 07:23:19;;;;;;;246.07;51.75;;;;;;;3.27;100.00;102933.16;4977110;28;20776;-68
2022/01/15 07:25:45;;;;;;;227.50;47.38;;;;;;;3.27;100.00;102936.66;4978614;28;20824;-68
2022/01/15 07:28:11;;;;;;;237.63;51.53;;;;;;;3.35;100.00;102941.06;4972810;28;20046;-66
2022/01/15 07:30:36;;;;;;;235.93;51.70;;;;;;;3.43;100.00;102938.16;4979367;28;20187;-69
2022/01/15 07:33:02;;;;;;;255.25;52.67;;;;;;;3.34;100.00;102932.13;4979222;28;20046;-67
2022/01/15 07:35:28;;;;;;;231.50;49.40;;;;;;;3.44;100.00;102934.44;5357652;23;20018;-74
2022/01/15 07:37:54;;;;;;;249.20;51.20;;;;;;;3.28;100.00;102930.22;4996331;23;20465;-71
2022/01/15 07:40:20;;;;;;;267.63;50.22;;;;;;;3.24;100.00;102930.88;4984327;23;20066;-74
2022/01/15 07:42:45;;;;;;;287.67;51.55;;;;;;;3.24;100.00;102920.91;4977211;23;20088;-74
2022/01/15 07:45:13;;;;;;;267.63;49.88;;;;;;;3.16;100.00;102916.50;4973399;28;20386;-73
2022/01/15 07:47:39;;;;;;;271.40;51.65;;;;;;;3.16;100.00;102919.22;4974211;28;20043;-74
2022/01/15 07:50:07;;;;;;;273.48;50.10;;;;;;;3.15;100.00;102916.72;4967331;28;20049;-74
2022/01/15 07:52:33;;;;;;;265.45;51.63;;;;;;;3.19;100.00;102917.97;4974254;28;20035;-74
2022/01/15 07:55:00;;;;;;;318.33;57.03;;;;;;;3.18;100.00;102921.72;4962914;28;20038;-74
2022/01/15 07:57:26;;;;;;;280.60;58.97;;;;;;;3.21;100.00;102923.19;4975357;28;20069;-74
2022/01/15 07:59:51;;;;;;;288.85;52.70;;;;;;;3.18;100.00;102922.53;4975445;28;20568;-74
2022/01/15 08:02:17;;;;;;;268.70;52.92;;;;;;;3.35;100.00;102922.19;4960476;28;20046;-74
2022/01/15 08:04:43;;;;;;;279.77;55.88;;;;;;;3.21;100.00;102920.50;4960512;28;20120;-74
2022/01/15 08:07:11;;;;;;;264.85;54.97;;;;;;;3.21;100.00;102926.69;4967963;28;20557;-74
2022/01/15 08:09:38;;;;;;;285.27;60.53;;;;;;;3.36;100.00;102921.13;4967272;28;20464;-74
2022/01/15 08:12:04;;;;;;;293.33;59.97;;;;;;;3.39;100.00;102923.41;4974295;28;20502;-74
2022/01/15 08:14:29;;;;;;;319.30;72.80;;;;;;;3.47;100.00;102923.25;4959286;28;20042;-74
2022/01/15 08:16:55;;;;;;;317.92;60.33;;;;;;;3.33;100.00;102929.63;4974944;28;20050;-74
2022/01/15 08:19:20;;;;;;;231.68;51.83;;;;;;;3.17;100.00;102930.81;4965590;28;20502;-73
2022/01/15 08:21:46;;;;;;;317.75;70.45;;;;;;;3.28;100.00;102926.72;4968780;28;20439;-74
2022/01/15 08:24:11;;;;;;;291.98;59.38;;;;;;;3.20;100.00;102919.66;4959967;28;20443;-74
2022/01/15 08:26:37;;;;;;;346.17;64.32;;;;;;;3.31;100.00;102918.22;4970327;28;20043;-74
2022/01/15 08:29:02;;;;;;;337.92;63.95;;;;;;;3.30;100.00;102924.66;4967766;28;20034;-73
2022/01/15 08:31:28;;;;;;;303.20;56.83;;;;;;;3.32;100.00;102922.59;4973865;28;20038;-73
2022/01/15 08:33:53;;;;;;;275.60;55.65;;;;;;;3.29;100.00;102912.22;4960582;28;20039;-74
2022/01/15 08:36:20;;;;;;;283.50;57.05;;;;;;;3.29;100.00;102925.69;4970283;28;20116;-74
2022/01/15 08:38:47;;;;;;;339.40;61.13;;;;;;;3.22;100.00;102922.97;4957903;28;20053;-74
2022/01/15 08:41:14;;;;;;;280.63;52.60;;;;;;;3.15;100.00;102917.56;4963764;28;20128;-73
2022/01/15 08:43:41;;;;;;;274.55;52.38;;;;;;;3.17;100.00;102906.56;4965761;28;20034;-74
2022/01/15 08:46:06;;;;;;;335.05;57.42;;;;;;;3.22;100.00;102905.97;4965517;28;20155;-74
2022/01/15 08:48:31;;;;;;;269.50;54.08;;;;;;;3.16;100.00;102903.03;4963327;28;20054;-74
2022/01/15 08:50:57;;;;;;;311.23;57.97;;;;;;;3.23;100.00;102910.31;4973351;28;20077;-74
2022/01/15 08:53:23;;;;;;;277.02;50.65;;;;;;;3.11;100.00;102905.53;4973782;28;20623;-74
2022/01/15 08:55:49;;;;;;;271.17;51.17;;;;;;;3.11;100.00;102900.13;4984000;28;20054;-74
2022/01/15 08:58:14;;;;;;;288.10;53.00;;;;;;;3.14;100.00;102898.88;4975063;28;20077;-73
2022/01/15 09:00:40;;;;;;;307.90;56.72;;;;;;;3.08;100.00;102903.22;4954677;28;20628;-74
2022/01/15 09:03:09;;;;;;;218.60;44.55;;;;;;;3.08;100.00;102899.69;4961784;28;20041;-74
2022/01/15 09:05:35;;;;;;;273.65;54.63;;;;;;;3.16;100.00;102891.44;4953255;28;20041;-75
2022/01/15 09:08:02;;;;;;;251.55;52.28;;;;;;;3.17;100.00;102896.63;4965784;28;20472;-74
2022/01/15 09:10:28;;;;;;;307.48;52.35;;;;;;;3.15;100.00;102890.59;4964822;28;20402;-74
2022/01/15 09:12:53;;;;;;;273.63;53.00;;;;;;;3.14;100.00;102899.72;4966023;28;20050;-74
2022/01/15 09:15:18;;;;;;;296.35;58.20;;;;;;;3.17;100.00;102888.53;4964469;28;20054;-74
2022/01/15 09:17:44;;;;;;;359.02;58.92;;;;;;;3.21;100.00;102888.13;4960542;28;20046;-75
2022/01/15 09:20:10;;;;;;;329.45;58.47;;;;;;;3.29;100.00;102885.25;4962525;28;20039;-74
2022/01/15 09:22:36;;;;;;;357.92;57.47;;;;;;;3.33;100.00;102881.09;4962608;28;20510;-74
2022/01/15 09:25:03;;;;;;;299.08;55.00;;;;;;;3.28;100.00;102883.56;4964367;28;20026;-74
2022/01/15 09:30:12;;;;;;;360.10;57.53;;;;;;;3.21;100.00;102877.34;4962620;28;20640;-74
2022/01/15 09:32:40;;;;;;;358.40;60.38;;;;;;;3.26;100.00;102872.16;4962492;28;20137;-74
2022/01/15 09:35:06;;;;;;;310.55;54.25;;;;;;;3.16;100.00;102870.69;4958216;28;20074;-74
2022/01/15 09:37:31;;;;;;;294.73;52.08;;;;;;;3.16;100.00;102873.38;4967444;28;20553;-73
2022/01/15 09:39:58;;;;;;;322.83;60.72;;;;;;;3.43;100.00;102878.81;4968339;28;20043;-74
2022/01/15 09:42:24;;;;;;;440.30;65.63;;;;;;;3.52;100.00;102880.31;4955698;28;20569;-74
2022/01/15 09:44:52;;;;;;;307.42;53.20;;;;;;;3.28;100.00;102873.59;4969030;28;20468;-75
2022/01/15 09:47:20;;;;;;;406.00;66.80;;;;;;;3.44;100.00;102877.78;4966463;28;20291;-74
2022/01/15 09:49:45;;;;;;;352.50;61.40;;;;;;;3.49;100.00;102880.72;4950564;28;20104;-74
2022/01/15 09:52:12;;;;;;;310.10;58.97;;;;;;;3.73;100.00;102875.75;4970183;28;20046;-74
2022/01/15 09:54:39;;;;;;;326.92;60.90;;;;;;;3.50;100.00;102876.16;4970386;28;20037;-74
2022/01/15 09:57:05;;;;;;;362.55;60.70;;;;;;;3.55;100.00;102876.34;4971625;28;20466;-74
2022/01/15 09:59:31;;;;;;;249.13;51.92;;;;;;;3.44;100.00;102875.09;4975453;28;20057;-74
2022/01/15 10:02:01;;;;;;;353.55;61.85;;;;;;;3.51;100.00;102881.31;4972036;28;20046;-74
2022/01/15 10:04:29;;;;;;;269.05;48.50;;;;;;;3.42;100.00;102874.47;4967499;28;20054;-74
2022/01/15 10:07:09;;;;;;;306.00;55.67;;;;;;;3.43;100.00;102876.13;4967820;28;20061;-74
2022/01/15 10:09:36;;;;;;;396.08;62.75;;;;;;;3.63;100.00;102876.97;4957623;28;20581;-74
2022/01/15 10:12:03;;;;;;;323.05;53.42;;;;;;;3.45;100.00;102873.22;4972126;28;20644;-74
2022/01/15 10:14:32;;;;;;;286.50;54.20;;;;;;;3.60;100.00;102866.59;4972445;28;20042;-74
2022/01/15 10:16:59;;;;;;;300.52;51.22;;;;;;;3.66;100.00;102874.91;4962514;28;20105;-74
2022/01/15 10:19:26;;;;;;;323.67;53.80;;;;;;;3.56;100.00;102876.13;4970748;28;20046;-73
2022/01/15 10:22:08;;;;;;;289.20;50.63;;;;;;;3.57;100.00;102875.09;4958623;28;20038;-74
2022/01/15 10:24:35;;;;;;;347.58;55.75;;;;;;;3.58;100.00;102878.66;4965626;28;20504;-73
2022/01/15 10:27:16;;;;;;;374.88;54.35;;;;;;;3.51;100.00;102873.22;4968776;28;20038;-74
2022/01/15 10:29:41;;;;;;;308.38;52.17;;;;;;;3.44;100.00;102872.41;4958141;28;20118;-73
2022/01/15 10:32:12;;;;;;;338.08;53.28;;;;;;;3.50;100.00;102876.97;4969562;28;20038;-74
2022/01/15 10:34:39;;;;;;;276.92;47.72;;;;;;;3.54;100.00;102872.81;4963896;28;20057;-74
2022/01/15 10:37:12;;;;;;;248.43;47.42;;;;;;;3.53;100.00;102865.78;4960994;28;20390;-74
2022/01/15 10:39:37;;;;;;;198.50;35.35;;;;;;;3.42;100.00;102863.69;4969582;28;20213;-74
2022/01/15 10:42:14;;;;;;;263.13;49.75;;;;;;;3.62;100.00;102861.81;4958153;28;20046;-73
2022/01/15 10:44:39;;;;;;;265.90;49.95;;;;;;;3.82;100.00;102852.91;4973137;28;20488;-73
2022/01/15 10:47:10;;;;;;;203.57;39.55;;;;;;;3.61;100.00;102860.16;4975003;28;20073;-73
2022/01/15 10:49:38;;;;;;;241.40;46.35;;;;;;;3.69;100.00;102869.09;4971100;28;20896;-73
2022/01/15 10:52:19;;;;;;;265.27;48.45;;;;;;;3.78;100.00;102870.53;4959059;28;20488;-73
2022/01/15 10:55:06;;;;;;;229.15;47.50;;;;;;;3.70;100.00;102865.38;4963605;28;20042;-73
2022/01/15 10:57:38;;;;;;;249.23;47.58;;;;;;;4.05;100.00;102857.84;4971134;28;20503;-73
2022/01/15 11:00:14;;;;;;;320.27;54.42;;;;;;;3.71;100.00;102858.91;4968749;28;20484;-74
2022/01/15 11:02:42;;;;;;;278.90;49.05;;;;;;;3.75;100.00;102852.06;4958712;28;20053;-73
2022/01/15 11:05:23;;;;;;;263.75;48.08;;;;;;;3.82;100.00;102847.50;4969266;28;20050;-74
2022/01/15 11:07:49;;;;;;;279.75;47.70;;;;;;;3.81;100.00;102851.22;4970158;28;20459;-74
2022/01/15 11:10:14;;;;;;;320.67;50.00;;;;;;;3.80;100.00;102855.78;4955928;28;20121;-74
2022/01/15 11:12:40;;;;;;;309.50;55.47;;;;;;;3.82;100.00;102852.91;4964169;28;20360;-73
2022/01/15 11:15:06;;;;;;;276.30;58.33;;;;;;;4.03;100.00;102851.81;4960713;28;20047;-74
2022/01/15 11:17:33;;;;;;;261.75;53.42;;;;;;;3.91;100.00;102840.84;4970809;28;20030;-73
2022/01/15 11:20:03;;;;;;;272.45;50.40;;;;;;;3.81;100.00;102845.81;4963286;28;20039;-74
2022/01/15 11:22:30;;;;;;;295.65;52.80;;;;;;;4.06;100.00;102838.72;4967614;28;20142;-73